createdAt,value
2023-03-12T00:00:27.915Z,1.60
2023-03-12T00:02:57.249Z,1.83
2023-03-12T00:05:26.932Z,1.73
2023-03-12T00:07:53.936Z,2.10
2023-03-12T00:10:23.160Z,1.67
2023-03-12T00:12:52.377Z,2.05
2023-03-12T00:15:22.172Z,2.00
2023-03-12T00:17:48.962Z,2.05
2023-03-12T00:20:15.995Z,1.90
2023-03-12T00:22:42.741Z,1.70
2023-03-12T00:25:17.328Z,2.00
2023-03-12T00:27:46.539Z,1.80
2023-03-12T00:32:43.093Z,1.55
2023-03-12T00:35:10.049Z,1.35
2023-03-12T00:37:39.153Z,2.00
2023-03-12T00:40:10.704Z,1.75
2023-03-12T00:42:42.212Z,1.75
2023-03-12T00:45:09.682Z,1.90
2023-03-12T00:47:38.749Z,1.60
2023-03-12T00:50:06.041Z,1.40
2023-03-12T00:52:32.928Z,1.40
2023-03-12T00:55:02.141Z,1.35
2023-03-12T00:57:29.153Z,1.40
2023-03-12T00:59:55.889Z,1.30
2023-03-12T01:02:22.744Z,1.33
2023-03-12T01:04:56.659Z,1.02
2023-03-12T01:07:23.805Z,1.30
2023-03-12T01:09:52.997Z,1.25
2023-03-12T01:12:22.094Z,1.10
2023-03-12T01:14:48.900Z,1.48
2023-03-12T01:17:15.776Z,1.23
2023-03-12T01:19:42.547Z,1.30
2023-03-12T01:22:13.816Z,1.20
2023-03-12T01:24:42.903Z,1.02
2023-03-12T01:27:12.035Z,1.20
2023-03-12T01:29:41.291Z,1.05
2023-03-12T01:32:10.512Z,1.10
2023-03-12T01:34:39.481Z,0.80
2023-03-12T01:37:08.805Z,0.85
2023-03-12T01:39:40.409Z,1.00
2023-03-12T01:42:07.753Z,0.90
2023-03-12T01:44:57.202Z,0.70
2023-03-12T01:47:24.871Z,1.05
2023-03-12T01:49:53.549Z,0.88
2023-03-12T01:52:30.266Z,0.82
2023-03-12T01:55:02.875Z,1.70
2023-03-12T01:57:34.680Z,1.00
2023-03-12T02:00:13.936Z,1.15
2023-03-12T02:02:42.065Z,1.17
2023-03-12T02:05:14.631Z,0.90
2023-03-12T02:07:41.940Z,1.13
2023-03-12T02:10:11.528Z,1.20
2023-03-12T02:12:43.362Z,2.28
2023-03-12T02:15:11.216Z,1.25
2023-03-12T02:17:43.663Z,1.60
2023-03-12T02:20:32.582Z,2.00
2023-03-12T02:23:21.663Z,1.33
